Strabane, United Kingdom
Current Conditions -  °F | °C
As of 9:20 AM on Thursday 23 Oct 2014 (Local Time) from EGAE Reporting Station
Broken Clouds Broken Clouds  
Wind Chill: 55°   Ceiling: 1600
Heat Index: 55°   Visibility: 6mi
Dew Point: 52°   Wind: 14mph
Humidity: 88%   Direction: 220°SW
Pressure: 29.77"   Gusts: NA
Location:  54.82°N, 7.47°W
Report Text: EGAE 230820Z 22012KT 9999 FEW008 SCT012 BKN016 13/11 Q1008
Loading
Personal Weather Stations






























Interactive Weather Map
Tropical Storm Tracking
New forecast layout! Learn more

10-Day Weather Forecast

Advertisements
Track Severe Weather on mobile